Time;durP1;ratioP1;P1;durP2;ratioP2;P2;SDS_P1;SDS_P2;PMS_P1;PMS_P2;Temp;Humidity;BMP_temperature;BMP_pressure;BME280_temperature;BME280_humidity;BME280_pressure;Samples;Min_cycle;Max_cycle;Signal;HPM_P1;HPM_P2
2022/12/29 00:03:08;;;;;;;1.95;0.30;;;;;;;19.58;39.90;100009.69;16124947;19;130169;-52
2022/12/29 00:08:39;;;;;;;0.25;0.25;;;;;;;19.54;39.68;99987.22;16123512;19;129438;-49
2022/12/29 00:36:52;;;;;;;0.88;0.30;;;;;;;19.36;39.71;99977.47;16126663;19;131431;-51
2022/12/29 00:47:55;;;;;;;0.20;0.20;;;;;;;19.34;39.83;99960.28;16123287;19;131422;-48
2022/12/29 00:53:16;;;;;;;0.25;0.20;;;;;;;19.30;39.85;99964.69;16124437;19;130817;-49
2022/12/29 00:58:38;;;;;;;0.80;0.22;;;;;;;19.26;40.21;99953.31;16125825;19;129747;-48
2022/12/29 01:04:00;;;;;;;0.38;0.20;;;;;;;19.24;40.11;99949.16;16125136;19;130986;-50
2022/12/29 01:15:05;;;;;;;0.10;0.10;;;;;;;19.17;39.74;99941.09;16125157;19;129561;-52
2022/12/29 01:20:28;;;;;;;0.35;0.17;;;;;;;19.16;40.06;99943.00;16127615;19;130545;-48
2022/12/29 01:25:50;;;;;;;1.05;0.13;;;;;;;19.15;40.20;99935.78;16119238;19;129337;-48
2022/12/29 01:31:14;;;;;;;0.40;0.20;;;;;;;19.12;39.93;99925.28;16117517;19;128951;-50
2022/12/29 01:36:36;;;;;;;0.50;0.20;;;;;;;19.10;39.89;99946.03;16123188;19;130812;-49
2022/12/29 01:41:58;;;;;;;1.30;0.10;;;;;;;19.07;39.74;99937.19;16124084;19;131961;-50
2022/12/29 01:47:30;;;;;;;0.50;0.20;;;;;;;19.07;39.67;99947.44;16119927;19;131568;-47
2022/12/29 01:53:01;;;;;;;3.13;0.20;;;;;;;19.05;39.79;99944.94;16122061;19;130274;-46
2022/12/29 01:58:27;;;;;;;1.60;0.35;;;;;;;19.02;40.05;99964.03;16119048;19;130176;-49
2022/12/29 02:03:50;;;;;;;1.58;0.30;;;;;;;18.99;39.98;99968.19;16116334;19;129952;-49
2022/12/29 02:09:12;;;;;;;0.98;0.22;;;;;;;18.98;39.83;99949.06;16116927;19;130231;-47
2022/12/29 02:14:34;;;;;;;0.30;0.13;;;;;;;18.96;40.10;99949.31;16117913;19;129736;-48
2022/12/29 02:20:10;;;;;;;0.50;0.20;;;;;;;18.95;39.83;99941.28;16117946;19;129101;-49
2022/12/29 02:25:58;;;;;;;0.40;0.10;;;;;;;18.93;39.87;99930.50;16116208;19;130079;-49
2022/12/29 02:31:27;;;;;;;1.15;0.20;;;;;;;18.90;40.09;99919.94;16116167;19;129797;-49
2022/12/29 02:37:20;;;;;;;0.85;0.20;;;;;;;18.90;39.64;99928.25;16116402;19;130462;-45
2022/12/29 02:42:51;;;;;;;0.85;0.28;;;;;;;18.87;39.80;99923.25;16120736;19;130221;-47
2022/12/29 02:48:23;;;;;;;0.80;0.20;;;;;;;18.86;40.06;99927.13;16119739;19;129970;-47
2022/12/29 02:59:26;;;;;;;1.65;0.30;;;;;;;18.82;40.12;99912.16;16117268;19;130485;-51
2022/12/29 03:05:12;;;;;;;1.80;0.20;;;;;;;18.81;39.78;99918.81;16117689;19;129092;-52
2022/12/29 03:10:40;;;;;;;0.40;0.20;;;;;;;18.79;40.06;99916.28;16113423;19;130489;-50
2022/12/29 03:16:32;;;;;;;0.20;0.20;;;;;;;18.79;39.68;99905.22;16117448;19;130186;-52
2022/12/29 03:27:54;;;;;;;0.10;0.10;;;;;;;18.76;40.14;99906.59;16116730;19;135296;-51
2022/12/29 03:33:22;;;;;;;1.35;0.20;;;;;;;18.73;39.87;99923.75;16110091;19;129463;-47
2022/12/29 03:38:50;;;;;;;0.60;0.17;;;;;;;18.72;39.70;99905.47;16115719;19;130658;-48
2022/12/29 03:44:13;;;;;;;0.50;0.28;;;;;;;18.71;40.03;99912.09;16114626;19;129464;-53
2022/12/29 03:49:35;;;;;;;1.00;0.20;;;;;;;18.70;39.72;99926.25;16120360;19;130226;-49
2022/12/29 03:54:56;;;;;;;0.52;0.20;;;;;;;18.69;39.93;99916.25;16130216;19;129109;-50
2022/12/29 04:00:18;;;;;;;0.35;0.17;;;;;;;18.67;39.84;99930.41;16128222;19;131225;-49
2022/12/29 04:05:40;;;;;;;0.70;0.38;;;;;;;18.66;40.11;99927.88;16123425;19;129569;-48
2022/12/29 04:11:02;;;;;;;0.63;0.10;;;;;;;18.65;40.04;99927.06;16127722;19;129235;-50
2022/12/29 04:16:24;;;;;;;1.52;0.50;;;;;;;18.63;39.59;99932.03;16125834;19;129818;-48
2022/12/29 04:21:46;;;;;;;1.92;0.30;;;;;;;18.63;40.04;99956.97;16129174;19;129508;-53
2022/12/29 04:27:07;;;;;;;3.20;0.17;;;;;;;18.61;39.91;99959.16;16128791;19;131244;-50
2022/12/29 04:32:29;;;;;;;1.65;0.32;;;;;;;18.60;39.62;99966.66;16127089;19;130128;-52
2022/12/29 04:37:51;;;;;;;0.82;0.30;;;;;;;18.61;39.67;99970.25;16128735;19;130856;-53
2022/12/29 04:43:13;;;;;;;0.45;0.17;;;;;;;18.60;39.51;99982.44;16127230;19;133450;-50
2022/12/29 04:48:35;;;;;;;0.45;0.20;;;;;;;18.60;39.83;99985.19;16128372;19;129516;-53
2022/12/29 04:53:57;;;;;;;0.75;0.22;;;;;;;18.58;40.00;99984.66;16126182;19;130125;-49
2022/12/29 04:59:19;;;;;;;1.50;0.22;;;;;;;18.55;39.58;99987.97;16123399;19;130403;-53
2022/12/29 05:04:40;;;;;;;1.48;0.47;;;;;;;18.55;39.55;99988.78;16123573;19;130245;-52
2022/12/29 05:10:04;;;;;;;1.17;0.40;;;;;;;18.54;39.77;100002.91;16127387;19;129867;-50
2022/12/29 05:15:25;;;;;;;1.40;0.20;;;;;;;18.53;39.92;100001.25;16121720;19;130930;-46
2022/12/29 05:20:47;;;;;;;1.40;0.20;;;;;;;18.51;39.72;99987.66;16121063;19;131010;-49
2022/12/29 05:26:09;;;;;;;1.45;0.30;;;;;;;18.49;39.67;99997.31;16120971;19;129365;-49
2022/12/29 05:31:31;;;;;;;1.05;0.20;;;;;;;18.49;39.90;100000.94;16121646;19;130115;-51
2022/12/29 05:36:53;;;;;;;1.60;0.30;;;;;;;18.48;39.57;100003.97;16121762;19;130608;-48
2022/12/29 05:42:14;;;;;;;0.65;0.40;;;;;;;18.46;39.39;99999.53;16123650;19;130146;-51
2022/12/29 05:47:37;;;;;;;1.23;0.22;;;;;;;18.46;39.80;100013.38;16118674;19;132840;-50
2022/12/29 05:52:59;;;;;;;0.85;0.32;;;;;;;18.45;39.83;100011.72;16122343;19;129727;-51
2022/12/29 05:58:21;;;;;;;0.95;0.20;;;;;;;18.44;39.76;100011.97;16120322;19;129978;-52
2022/12/29 06:03:43;;;;;;;1.42;0.30;;;;;;;18.44;39.72;100015.59;16120863;19;130502;-52
2022/12/29 06:09:10;;;;;;;1.30;0.20;;;;;;;18.43;39.37;100013.94;16118413;19;130810;-47
2022/12/29 06:14:32;;;;;;;1.08;0.35;;;;;;;18.42;39.37;100016.94;16118256;19;129697;-49
2022/12/29 06:19:54;;;;;;;3.53;0.32;;;;;;;18.42;39.69;100031.66;16111995;19;131543;-51
2022/12/29 06:25:16;;;;;;;0.73;0.30;;;;;;;18.43;39.64;100036.09;16115520;19;129264;-53
2022/12/29 06:30:38;;;;;;;2.03;0.40;;;;;;;18.45;39.32;100044.13;16116960;19;130338;-53
2022/12/29 06:36:00;;;;;;;4.22;0.40;;;;;;;18.50;39.56;100037.78;16117935;19;129593;-58
2022/12/29 06:41:22;;;;;;;3.60;0.63;;;;;;;18.55;39.45;100054.44;16116442;19;129126;-51
2022/12/29 06:46:52;;;;;;;5.95;0.73;;;;;;;18.58;39.18;100065.00;16116295;19;130488;-54
2022/12/29 06:52:14;;;;;;;10.32;0.75;;;;;;;18.58;39.18;100065.00;16118355;19;129867;-53
2022/12/29 06:57:35;;;;;;;6.18;0.82;;;;;;;18.57;39.52;100068.84;16117364;19;129018;-52
2022/12/29 07:03:00;;;;;;;1.88;0.40;;;;;;;18.55;39.00;100054.44;16116663;19;132485;-51
2022/12/29 07:08:22;;;;;;;6.37;0.70;;;;;;;18.53;38.99;100056.63;16115139;19;129236;-50
2022/12/29 07:13:44;;;;;;;3.38;0.60;;;;;;;18.51;38.97;100054.16;16115669;19;129095;-51
2022/12/29 07:19:06;;;;;;;4.85;0.57;;;;;;;18.50;39.12;100060.78;16116422;19;129118;-49
2022/12/29 07:24:27;;;;;;;4.22;0.70;;;;;;;18.49;39.37;100072.09;16116508;19;132251;-52
2022/12/29 07:29:49;;;;;;;2.95;0.50;;;;;;;18.48;38.90;100074.06;16132255;19;129359;-51
2022/12/29 07:35:11;;;;;;;2.88;0.70;;;;;;;18.45;39.31;100078.19;16131373;19;131069;-53
2022/12/29 07:40:33;;;;;;;3.03;0.77;;;;;;;18.44;38.93;100079.31;16133492;19;130716;-52
2022/12/29 07:45:54;;;;;;;4.05;0.57;;;;;;;18.43;38.97;100085.09;16129829;19;130605;-51
2022/12/29 07:51:16;;;;;;;3.20;0.80;;;;;;;18.40;39.08;100103.06;16128757;19;130027;-52
2022/12/29 07:56:38;;;;;;;4.80;0.95;;;;;;;18.37;39.12;100111.88;16135036;19;129793;-53
2022/12/29 08:02:00;;;;;;;4.03;0.70;;;;;;;18.36;39.11;100109.38;16129789;19;129488;-53
2022/12/29 08:07:22;;;;;;;5.60;0.70;;;;;;;18.35;39.06;100104.94;16129881;19;129526;-52
2022/12/29 08:12:44;;;;;;;2.85;0.82;;;;;;;18.33;38.81;100107.97;16129860;19;129853;-48
2022/12/29 08:18:06;;;;;;;4.82;1.00;;;;;;;18.33;38.74;100096.91;16128829;19;129933;-50
2022/12/29 08:23:27;;;;;;;2.95;0.75;;;;;;;18.33;38.67;100102.44;16126682;19;132212;-50
2022/12/29 08:28:52;;;;;;;3.80;0.85;;;;;;;18.34;38.86;100108.81;16127760;19;130357;-48
2022/12/29 08:34:14;;;;;;;4.23;0.53;;;;;;;18.31;38.71;100115.72;16124270;19;130371;-49
2022/12/29 08:39:35;;;;;;;2.50;0.70;;;;;;;18.31;38.52;100121.25;16126993;19;129585;-51
2022/12/29 08:44:58;;;;;;;2.47;0.45;;;;;;;18.30;38.43;100112.09;16126088;19;131915;-51
2022/12/29 08:50:20;;;;;;;3.20;0.77;;;;;;;18.30;38.67;100117.63;16127571;19;129796;-51
2022/12/29 08:55:42;;;;;;;4.10;0.68;;;;;;;18.29;38.37;100117.91;16125212;19;129057;-48
2022/12/29 09:01:04;;;;;;;4.18;0.80;;;;;;;18.30;38.51;100136.19;16125250;19;129197;-51
2022/12/29 09:06:25;;;;;;;5.93;1.02;;;;;;;18.28;38.44;100141.16;16117924;19;129650;-51
2022/12/29 09:11:47;;;;;;;3.60;0.80;;;;;;;18.28;38.22;100155.81;16123177;19;129841;-49
2022/12/29 09:22:50;;;;;;;6.90;1.17;;;;;;;18.25;38.28;100172.13;16121169;19;130030;-50
2022/12/29 09:28:12;;;;;;;5.93;1.20;;;;;;;18.23;38.00;100179.84;16124533;19;130310;-51
2022/12/29 09:33:34;;;;;;;6.47;1.00;;;;;;;18.22;37.99;100178.19;16124139;19;130564;-51
2022/12/29 09:38:56;;;;;;;8.45;1.55;;;;;;;18.21;37.60;100185.66;16124825;19;130367;-49
2022/12/29 09:44:56;;;;;;;6.85;1.52;;;;;;;18.22;37.91;100216.94;16122686;19;130112;-49
2022/12/29 09:50:28;;;;;;;5.72;1.08;;;;;;;18.23;37.82;100230.53;16112068;19;130637;-49
2022/12/29 09:55:54;;;;;;;6.05;1.23;;;;;;;18.22;37.48;100245.47;16115125;19;129881;-49
2022/12/29 10:01:22;;;;;;;7.78;1.20;;;;;;;18.21;37.43;100259.59;16111734;19;130249;-52
2022/12/29 10:06:50;;;;;;;4.15;1.10;;;;;;;18.22;37.86;100267.63;16109886;19;129768;-53
2022/12/29 10:12:58;;;;;;;4.47;1.10;;;;;;;18.23;37.45;100279.53;16111187;19;129671;-46
2022/12/29 10:18:20;;;;;;;6.45;1.05;;;;;;;18.22;37.64;100289.78;16111813;19;130968;-46
2022/12/29 10:23:51;;;;;;;3.55;0.95;;;;;;;18.23;37.82;100290.59;16115275;19;129879;-48
2022/12/29 10:29:18;;;;;;;4.45;0.70;;;;;;;18.22;37.60;100303.63;16119421;19;132134;-53
2022/12/29 10:34:51;;;;;;;2.97;1.20;;;;;;;18.23;37.59;100312.75;16120142;19;130244;-47
2022/12/29 10:40:26;;;;;;;3.65;0.82;;;;;;;18.24;37.82;100308.88;16107615;19;130644;-52
2022/12/29 10:45:48;;;;;;;2.20;0.82;;;;;;;18.23;37.67;100318.28;16115723;19;130057;-50
2022/12/29 10:51:20;;;;;;;4.65;1.02;;;;;;;18.24;37.73;100322.72;16115411;19;129080;-53
2022/12/29 10:57:01;;;;;;;3.90;1.02;;;;;;;18.24;37.77;100308.88;16117973;19;131011;-51
2022/12/29 11:03:00;;;;;;;5.55;0.80;;;;;;;18.24;37.54;100322.72;16116426;19;136332;-51
2022/12/29 11:08:27;;;;;;;4.25;0.75;;;;;;;18.22;37.61;100333.22;16115548;19;130042;-48
2022/12/29 11:13:50;;;;;;;3.05;0.75;;;;;;;18.22;37.69;100334.06;16114248;19;129689;-52
2022/12/29 11:19:25;;;;;;;2.72;0.82;;;;;;;18.25;37.70;100341.03;16114080;19;130338;-49
2022/12/29 11:24:48;;;;;;;2.63;0.70;;;;;;;18.25;38.10;100349.31;16115493;19;129914;-48
2022/12/29 11:30:29;;;;;;;3.03;0.80;;;;;;;18.27;37.97;100363.75;16112371;19;130232;-52
2022/12/29 11:36:15;;;;;;;2.33;0.80;;;;;;;18.25;38.15;100360.41;16110543;19;130923;-50
2022/12/29 11:41:37;;;;;;;3.27;0.73;;;;;;;18.23;37.96;100366.22;16115436;19;130072;-51
2022/12/29 11:46:59;;;;;;;4.80;0.77;;;;;;;18.24;37.64;100380.88;16112334;19;128988;-50
2022/12/29 11:52:24;;;;;;;4.45;0.95;;;;;;;18.25;37.68;100379.78;16113293;19;129981;-51
2022/12/29 11:57:47;;;;;;;8.13;1.20;;;;;;;18.22;37.71;100394.13;16110678;19;130036;-47
2022/12/29 12:03:19;;;;;;;4.07;0.80;;;;;;;18.23;37.99;100402.19;16110834;19;130037;-53
2022/12/29 12:08:46;;;;;;;5.43;1.13;;;;;;;18.21;37.79;100389.72;16114353;19;130374;-52
2022/12/29 12:14:19;;;;;;;7.13;1.10;;;;;;;18.21;37.92;100385.00;16130470;19;129235;-52
2022/12/29 12:19:58;;;;;;;6.90;1.15;;;;;;;18.21;37.94;100386.94;16129820;19;130317;-53
2022/12/29 12:25:27;;;;;;;10.85;1.42;;;;;;;18.20;37.85;100390.81;16130033;19;130373;-54
2022/12/29 12:30:54;;;;;;;3.35;0.90;;;;;;;18.21;37.48;100400.78;16127605;19;130385;-54
2022/12/29 12:36:22;;;;;;;8.55;1.10;;;;;;;18.22;37.79;100413.50;16125669;19;129525;-50
2022/12/29 12:41:46;;;;;;;7.18;1.30;;;;;;;18.20;37.77;100410.19;16127304;19;129326;-51
2022/12/29 12:47:37;;;;;;;4.75;0.80;;;;;;;18.20;37.67;100408.25;16129105;19;129854;-53
2022/12/29 12:53:02;;;;;;;3.30;0.95;;;;;;;18.20;37.90;100396.34;16129470;19;129681;-53
2022/12/29 12:58:43;;;;;;;7.38;0.90;;;;;;;18.21;37.45;100409.09;16124687;19;129585;-55
2022/12/29 13:04:48;;;;;;;5.32;1.10;;;;;;;18.20;37.62;100401.88;16124188;19;129808;-51
2022/12/29 13:10:30;;;;;;;4.50;0.90;;;;;;;18.20;37.50;100426.81;16122219;19;129014;-54
2022/12/29 13:16:10;;;;;;;3.78;0.90;;;;;;;18.19;37.55;100423.19;16122983;19;128856;-54
2022/12/29 13:22:06;;;;;;;2.40;0.80;;;;;;;18.19;38.03;100416.81;16114978;19;130970;-51
2022/12/29 13:27:37;;;;;;;3.55;1.13;;;;;;;18.19;37.70;100422.34;16118187;19;129974;-50
2022/12/29 13:33:20;;;;;;;2.85;0.88;;;;;;;18.18;37.79;100415.97;16107812;19;130556;-51
2022/12/29 13:38:48;;;;;;;3.65;0.80;;;;;;;18.15;37.70;100422.84;16121248;19;129443;-50
2022/12/29 13:44:17;;;;;;;3.17;0.70;;;;;;;18.16;37.67;100423.69;16119104;19;129600;-52
2022/12/29 13:49:40;;;;;;;5.45;1.08;;;;;;;18.14;38.08;100431.44;16122628;19;130944;-47
2022/12/29 13:55:20;;;;;;;4.53;0.88;;;;;;;18.14;38.01;100435.03;16119050;19;129403;-47
2022/12/29 14:01:02;;;;;;;3.17;1.08;;;;;;;18.14;38.21;100442.50;16120209;19;129558;-51
2022/12/29 14:06:29;;;;;;;5.53;0.80;;;;;;;18.11;38.18;100437.47;16118004;19;129037;-55
2022/12/29 14:11:51;;;;;;;5.07;0.80;;;;;;;18.09;38.05;100437.69;16118806;19;128965;-55
2022/12/29 14:17:20;;;;;;;4.18;0.82;;;;;;;18.10;38.14;100441.31;16117019;19;132432;-52
2022/12/29 14:22:57;;;;;;;3.20;0.80;;;;;;;18.08;37.81;100449.03;16114779;19;130931;-49
2022/12/29 14:28:31;;;;;;;4.07;0.88;;;;;;;18.06;38.18;100474.22;16117598;19;130798;-50
2022/12/29 14:34:08;;;;;;;10.27;1.15;;;;;;;18.05;38.12;100491.91;16116675;19;129507;-52
2022/12/29 14:39:41;;;;;;;7.70;1.00;;;;;;;18.05;37.94;100494.69;16115177;19;130202;-49
2022/12/29 14:45:15;;;;;;;5.80;1.02;;;;;;;18.05;37.97;100489.16;16115518;19;132226;-50
2022/12/29 14:50:44;;;;;;;10.52;1.33;;;;;;;18.05;37.47;100502.13;16118471;19;130662;-50
2022/12/29 14:56:09;;;;;;;6.00;1.10;;;;;;;18.04;37.73;100509.63;16116044;19;129535;-49
2022/12/29 15:01:31;;;;;;;8.10;1.50;;;;;;;18.01;37.67;100504.56;16114764;19;130260;-52
2022/12/29 15:06:54;;;;;;;6.97;1.08;;;;;;;18.01;37.79;100507.34;16117041;19;130643;-51
2022/12/29 15:12:39;;;;;;;5.43;1.10;;;;;;;18.01;37.58;100526.72;16115761;19;134081;-51
2022/12/29 15:18:22;;;;;;;7.20;0.90;;;;;;;18.00;37.78;100513.97;16118329;19;129523;-52
2022/12/29 15:23:45;;;;;;;5.32;1.20;;;;;;;17.97;37.71;100514.50;16115816;19;130572;-49
2022/12/29 15:29:31;;;;;;;3.85;0.88;;;;;;;17.98;37.92;100518.91;16116765;19;131022;-47
2022/12/29 15:34:56;;;;;;;6.07;1.02;;;;;;;17.95;38.04;100528.56;16114975;19;129239;-50
2022/12/29 15:40:32;;;;;;;4.75;1.10;;;;;;;17.95;38.29;100527.75;16115971;19;137143;-52
2022/12/29 15:45:54;;;;;;;4.43;0.82;;;;;;;17.92;38.36;100534.59;16118951;19;129677;-47
2022/12/29 15:51:26;;;;;;;5.90;0.85;;;;;;;17.94;37.92;100537.13;16126318;19;129677;-52
2022/12/29 15:56:49;;;;;;;4.78;0.82;;;;;;;17.92;37.99;100539.31;16129947;19;129595;-48
2022/12/29 16:02:11;;;;;;;5.18;0.70;;;;;;;17.91;37.95;100554.22;16127613;19;130450;-48
2022/12/29 16:07:36;;;;;;;4.70;0.80;;;;;;;17.90;38.14;100558.94;16128744;19;129240;-49
2022/12/29 16:13:23;;;;;;;7.53;0.98;;;;;;;17.91;38.15;100576.38;16127429;19;133284;-52
2022/12/29 16:18:45;;;;;;;3.08;0.73;;;;;;;17.89;38.50;100582.16;16125047;19;129907;-48
2022/12/29 16:24:19;;;;;;;7.35;1.00;;;;;;;17.90;38.36;100581.09;16121344;19;130200;-49
2022/12/29 16:29:41;;;;;;;;;;;;;;;17.89;38.03;100584.06;16124683;19;129799;-47
2022/12/29 16:35:24;;;;;;;12.88;1.30;;;;;;;17.96;38.34;100593.91;16118202;19;131239;-51
2022/12/29 16:40:54;;;;;;;10.98;1.60;;;;;;;17.99;38.55;100596.19;16118450;19;129493;-49
2022/12/29 16:46:26;;;;;;;12.95;1.10;;;;;;;18.24;38.10;100591.31;16121760;19;129814;-50
2022/12/29 16:51:49;;;;;;;6.13;1.30;;;;;;;18.68;37.84;100610.03;16124030;19;130223;-50
2022/12/29 16:57:11;;;;;;;4.55;0.80;;;;;;;19.15;36.98;100622.59;16120190;19;130156;-53
2022/12/29 17:02:43;;;;;;;4.90;0.88;;;;;;;19.49;36.66;100608.63;16122515;19;130486;-51
2022/12/29 17:08:22;;;;;;;4.80;0.85;;;;;;;19.71;36.13;100616.91;16121271;19;132202;-48
2022/12/29 17:13:44;;;;;;;8.02;1.98;;;;;;;19.79;36.34;100626.72;16121847;19;129908;-48
2022/12/29 17:19:10;;;;;;;13.25;3.45;;;;;;;19.96;36.55;100632.97;16119189;19;129732;-49
2022/12/29 17:24:32;;;;;;;20.00;6.43;;;;;;;20.20;35.85;100631.84;16114796;19;129965;-48
2022/12/29 17:29:57;;;;;;;28.15;7.95;;;;;;;20.35;36.01;100633.91;16119829;19;130860;-49
2022/12/29 17:35:21;;;;;;;19.00;7.85;;;;;;;20.35;35.98;100642.25;16120869;19;129590;-48
2022/12/29 17:40:43;;;;;;;26.60;9.10;;;;;;;20.27;36.10;100649.97;16124711;19;134907;-52
2022/12/29 17:46:06;;;;;;;26.25;9.13;;;;;;;20.16;36.24;100658.47;16123807;19;130177;-52
2022/12/29 17:51:28;;;;;;;25.20;9.25;;;;;;;20.04;36.28;100667.78;16106239;19;131250;-50
2022/12/29 17:56:51;;;;;;;34.72;8.82;;;;;;;19.94;36.77;100667.66;16118422;19;131319;-51
2022/12/29 18:02:30;;;;;;;29.00;9.55;;;;;;;19.84;36.74;100662.84;16120769;19;130998;-48
2022/12/29 18:07:55;;;;;;;28.45;9.85;;;;;;;19.71;37.62;100677.97;16116716;19;131898;-52
2022/12/29 18:13:21;;;;;;;32.45;9.68;;;;;;;19.73;37.28;100688.81;16117917;19;128992;-52
2022/12/29 18:18:43;;;;;;;46.28;10.15;;;;;;;19.82;37.51;100690.88;16118570;19;132177;-53
2022/12/29 18:24:06;;;;;;;31.30;8.90;;;;;;;20.10;37.62;100699.22;16117995;19;130367;-52
2022/12/29 18:29:27;;;;;;;37.53;8.57;;;;;;;20.45;37.04;100693.19;16118897;19;129848;-48
2022/12/29 18:34:49;;;;;;;30.52;8.57;;;;;;;20.76;36.74;100700.97;16116997;19;131671;-50
2022/12/29 18:40:11;;;;;;;26.30;6.90;;;;;;;21.02;36.41;100693.63;16116967;19;130329;-52
2022/12/29 18:45:33;;;;;;;22.65;6.78;;;;;;;21.24;36.17;100700.16;16036056;19;152069;-51
2022/12/29 18:50:55;;;;;;;20.73;6.95;;;;;;;21.43;36.22;100706.94;16114515;19;131067;-49
2022/12/29 18:56:17;;;;;;;17.13;6.22;;;;;;;21.58;35.79;100720.13;16117011;19;129186;-52
2022/12/29 19:01:39;;;;;;;19.77;6.57;;;;;;;21.73;35.80;100724.91;16119451;19;129810;-51
2022/12/29 19:07:01;;;;;;;16.42;5.35;;;;;;;21.87;35.60;100716.06;16118315;19;130082;-54
2022/12/29 19:12:22;;;;;;;17.77;5.55;;;;;;;21.98;35.63;100726.94;16113624;19;135537;-53
2022/12/29 19:17:50;;;;;;;36.08;6.30;;;;;;;22.04;35.60;100738.94;16111849;19;130138;-50
2022/12/29 19:23:32;;;;;;;21.10;5.05;;;;;;;22.04;35.64;100747.28;16124160;19;129444;-48
2022/12/29 19:28:54;;;;;;;24.02;5.38;;;;;;;22.04;35.11;100758.44;16129587;19;130106;-51
2022/12/29 19:34:16;;;;;;;18.77;5.18;;;;;;;22.00;35.22;100751.75;16128689;19;129711;-51
2022/12/29 19:39:38;;;;;;;17.63;4.38;;;;;;;21.94;35.70;100750.91;16129063;19;129094;-52
2022/12/29 19:45:01;;;;;;;13.40;4.18;;;;;;;21.88;35.71;100754.75;16127696;19;129305;-52
2022/12/29 19:50:23;;;;;;;17.55;4.30;;;;;;;21.81;35.54;100755.00;16127417;19;131089;-51
2022/12/29 19:55:46;;;;;;;9.05;3.47;;;;;;;21.78;35.54;100768.66;16124955;19;130162;-47
2022/12/29 20:01:17;;;;;;;17.90;4.22;;;;;;;21.72;35.59;100778.09;16120803;19;130951;-52
2022/12/29 20:06:39;;;;;;;15.13;3.30;;;;;;;21.66;35.82;100768.88;16125137;19;130523;-47
2022/12/29 20:12:01;;;;;;;12.20;2.95;;;;;;;21.57;35.59;100782.47;16126343;19;129747;-49
2022/12/29 20:17:23;;;;;;;16.35;3.35;;;;;;;21.47;35.99;100791.56;16128031;19;132053;-48
2022/12/29 20:23:05;;;;;;;15.25;2.83;;;;;;;21.33;36.16;100793.13;16116916;19;130824;-52
2022/12/29 20:28:27;;;;;;;9.10;2.78;;;;;;;21.19;36.12;100790.81;16122447;19;129792;-52
2022/12/29 20:33:49;;;;;;;15.35;2.72;;;;;;;21.09;36.40;100787.97;16124020;19;130967;-49
2022/12/29 20:39:15;;;;;;;11.90;2.60;;;;;;;20.98;36.87;100787.06;16125156;19;130142;-50
2022/12/29 20:44:37;;;;;;;7.70;1.98;;;;;;;20.89;36.62;100777.50;16119453;19;130166;-51
2022/12/29 20:49:59;;;;;;;8.57;2.80;;;;;;;20.80;36.93;100779.94;16121523;19;130679;-49
2022/12/29 20:55:21;;;;;;;6.32;1.85;;;;;;;20.73;36.55;100784.84;16121381;19;130699;-48
2022/12/29 21:00:43;;;;;;;11.38;2.10;;;;;;;20.67;36.74;100785.94;16119675;19;130715;-49
2022/12/29 21:06:08;;;;;;;6.07;1.90;;;;;;;20.66;36.75;100803.72;16119118;19;130518;-47
2022/12/29 21:11:30;;;;;;;7.30;2.03;;;;;;;20.60;36.74;100814.75;16120074;19;130594;-50
2022/12/29 21:16:52;;;;;;;8.00;1.73;;;;;;;20.55;36.84;100822.22;16120395;19;129950;-47
2022/12/29 21:22:14;;;;;;;7.88;1.70;;;;;;;20.48;36.69;100816.88;16119515;19;129492;-52
2022/12/29 21:27:36;;;;;;;6.30;1.60;;;;;;;20.41;37.07;100816.25;16118633;19;129099;-51
2022/12/29 21:32:58;;;;;;;7.88;1.70;;;;;;;20.36;37.32;100824.50;16118790;19;134047;-52
2022/12/29 21:38:20;;;;;;;4.95;1.30;;;;;;;20.31;36.92;100827.25;16119438;19;129323;-49
2022/12/29 21:45:23;;;;;;;4.35;1.38;;;;;;;20.24;37.04;100833.81;16115713;19;129672;-51
2022/12/29 21:49:26;;;;;;;3.75;1.30;;;;;;;20.18;37.37;100834.88;16115161;19;132404;-51
2022/12/29 21:55:00;;;;;;;6.68;1.10;;;;;;;20.15;37.14;100852.06;16118727;19;129418;-51
2022/12/29 22:17:23;;;;;;;4.65;1.40;;;;;;;19.96;37.09;100863.44;16109500;19;129727;-51
2022/12/29 22:22:49;;;;;;;7.93;1.60;;;;;;;19.94;37.01;100867.56;16114279;19;129801;-54
2022/12/29 22:28:11;;;;;;;18.60;1.80;;;;;;;19.93;37.32;100865.88;16112719;19;130602;-52
2022/12/29 22:33:33;;;;;;;18.20;2.08;;;;;;;19.86;37.27;100877.19;16119135;19;129713;-49
2022/12/29 22:38:55;;;;;;;15.82;1.73;;;;;;;19.80;36.94;100889.31;16117855;19;129449;-48
2022/12/29 22:44:17;;;;;;;10.02;1.48;;;;;;;19.73;37.30;100906.16;16117893;19;133625;-50
2022/12/29 22:49:38;;;;;;;12.45;1.90;;;;;;;19.65;37.12;100909.34;16118417;19;130260;-51
2022/12/29 22:55:00;;;;;;;9.93;1.30;;;;;;;19.57;37.22;100907.00;16114673;19;130788;-51
2022/12/29 23:00:27;;;;;;;10.13;1.08;;;;;;;19.52;37.37;100916.09;16115802;19;129755;-51
2022/12/29 23:06:00;;;;;;;10.45;1.00;;;;;;;19.48;37.27;100915.75;16114948;19;130311;-52
2022/12/29 23:11:22;;;;;;;8.02;1.67;;;;;;;19.41;37.23;100926.16;16116086;19;130182;-51
2022/12/29 23:16:44;;;;;;;5.47;1.10;;;;;;;19.36;37.19;100924.16;16115629;19;129905;-51
2022/12/29 23:22:06;;;;;;;9.00;1.30;;;;;;;19.34;37.37;100937.44;16099623;19;130549;-49
2022/12/29 23:27:28;;;;;;;5.32;1.13;;;;;;;19.29;37.08;100940.13;16098211;19;130138;-54
2022/12/29 23:32:50;;;;;;;3.50;1.20;;;;;;;19.24;37.35;100937.25;16099841;19;130198;-48
2022/12/29 23:38:11;;;;;;;3.63;1.20;;;;;;;19.22;37.06;100939.44;16108238;19;129766;-53
2022/12/29 23:43:34;;;;;;;5.35;1.17;;;;;;;19.19;36.93;100942.69;16117124;19;130484;-53
2022/12/29 23:48:55;;;;;;;4.05;1.13;;;;;;;19.15;37.08;100944.28;16113530;19;130508;-50
2022/12/29 23:54:17;;;;;;;3.20;0.77;;;;;;;19.12;36.96;100944.75;16110653;19;129556;-51
2022/12/29 23:59:39;;;;;;;4.13;0.80;;;;;;;19.10;37.17;100946.94;16114118;19;129694;-48
